sensor_id;sensor_type;location;lat;lon;timestamp;temperature;humidity
59128;DHT22;44912;52.754;5.994;2023-07-29T00:00:58;18.80;99.90
59128;DHT22;44912;52.754;5.994;2023-07-29T00:03:25;18.70;99.90
59128;DHT22;44912;52.754;5.994;2023-07-29T00:05:51;18.70;99.90
59128;DHT22;44912;52.754;5.994;2023-07-29T00:08:18;18.60;99.90
59128;DHT22;44912;52.754;5.994;2023-07-29T00:10:44;18.60;99.90
59128;DHT22;44912;52.754;5.994;2023-07-29T00:13:09;18.50;99.90
59128;DHT22;44912;52.754;5.994;2023-07-29T00:15:35;18.50;99.90
59128;DHT22;44912;52.754;5.994;2023-07-29T00:18:00;18.40;99.90
59128;DHT22;44912;52.754;5.994;2023-07-29T00:20:26;18.40;99.90
59128;DHT22;44912;52.754;5.994;2023-07-29T00:22:52;18.40;99.90
59128;DHT22;44912;52.754;5.994;2023-07-29T00:25:21;18.30;99.90
59128;DHT22;44912;52.754;5.994;2023-07-29T00:27:47;18.20;99.90
59128;DHT22;44912;52.754;5.994;2023-07-29T00:30:12;18.20;99.90
59128;DHT22;44912;52.754;5.994;2023-07-29T00:32:38;18.20;99.90
59128;DHT22;44912;52.754;5.994;2023-07-29T00:35:04;18.10;99.90
59128;DHT22;44912;52.754;5.994;2023-07-29T00:37:30;18.00;99.90
59128;DHT22;44912;52.754;5.994;2023-07-29T00:39:56;18.00;99.90
59128;DHT22;44912;52.754;5.994;2023-07-29T00:42:21;17.90;99.90
59128;DHT22;44912;52.754;5.994;2023-07-29T00:44:47;17.80;99.90
59128;DHT22;44912;52.754;5.994;2023-07-29T00:47:14;17.80;99.90
59128;DHT22;44912;52.754;5.994;2023-07-29T00:49:40;17.80;99.90
59128;DHT22;44912;52.754;5.994;2023-07-29T00:52:06;17.80;99.90
59128;DHT22;44912;52.754;5.994;2023-07-29T00:54:32;17.80;99.90
59128;DHT22;44912;52.754;5.994;2023-07-29T00:56:57;17.80;99.90
59128;DHT22;44912;52.754;5.994;2023-07-29T00:59:23;17.70;99.90
59128;DHT22;44912;52.754;5.994;2023-07-29T01:01:49;17.70;99.90
59128;DHT22;44912;52.754;5.994;2023-07-29T01:04:14;17.70;99.90
59128;DHT22;44912;52.754;5.994;2023-07-29T01:06:48;17.70;99.90
59128;DHT22;44912;52.754;5.994;2023-07-29T01:10:10;17.70;99.90
59128;DHT22;44912;52.754;5.994;2023-07-29T01:12:54;17.70;99.90
59128;DHT22;44912;52.754;5.994;2023-07-29T01:15:50;17.70;99.90
59128;DHT22;44912;52.754;5.994;2023-07-29T01:18:28;17.70;99.90
59128;DHT22;44912;52.754;5.994;2023-07-29T01:20:54;17.70;99.90
59128;DHT22;44912;52.754;5.994;2023-07-29T01:23:24;17.70;99.90
59128;DHT22;44912;52.754;5.994;2023-07-29T01:25:49;17.70;99.90
59128;DHT22;44912;52.754;5.994;2023-07-29T01:28:15;17.70;99.90
59128;DHT22;44912;52.754;5.994;2023-07-29T01:30:42;17.70;99.90
59128;DHT22;44912;52.754;5.994;2023-07-29T01:33:17;17.70;99.90
59128;DHT22;44912;52.754;5.994;2023-07-29T01:36:03;17.70;99.90
59128;DHT22;44912;52.754;5.994;2023-07-29T01:38:33;17.80;99.90
59128;DHT22;44912;52.754;5.994;2023-07-29T01:41:04;17.70;99.90
59128;DHT22;44912;52.754;5.994;2023-07-29T01:43:31;17.80;99.90
59128;DHT22;44912;52.754;5.994;2023-07-29T01:45:58;17.80;99.90
59128;DHT22;44912;52.754;5.994;2023-07-29T01:48:24;17.80;99.90
59128;DHT22;44912;52.754;5.994;2023-07-29T01:50:49;17.80;99.90
59128;DHT22;44912;52.754;5.994;2023-07-29T01:53:15;17.80;99.90
59128;DHT22;44912;52.754;5.994;2023-07-29T01:55:42;17.80;99.90
59128;DHT22;44912;52.754;5.994;2023-07-29T01:58:07;17.70;99.90
59128;DHT22;44912;52.754;5.994;2023-07-29T02:00:33;17.80;99.90
59128;DHT22;44912;52.754;5.994;2023-07-29T02:02:58;17.70;99.90
59128;DHT22;44912;52.754;5.994;2023-07-29T02:05:24;17.70;99.90
59128;DHT22;44912;52.754;5.994;2023-07-29T02:07:49;17.70;99.90
59128;DHT22;44912;52.754;5.994;2023-07-29T02:10:15;17.80;99.90
59128;DHT22;44912;52.754;5.994;2023-07-29T02:12:41;17.70;99.90
59128;DHT22;44912;52.754;5.994;2023-07-29T02:15:07;17.80;99.90
59128;DHT22;44912;52.754;5.994;2023-07-29T02:17:32;17.70;99.90
59128;DHT22;44912;52.754;5.994;2023-07-29T02:19:58;17.70;99.90
59128;DHT22;44912;52.754;5.994;2023-07-29T02:22:23;17.80;99.90
59128;DHT22;44912;52.754;5.994;2023-07-29T02:24:49;17.80;99.90
59128;DHT22;44912;52.754;5.994;2023-07-29T02:27:14;17.80;99.90
59128;DHT22;44912;52.754;5.994;2023-07-29T02:29:40;17.80;99.90
59128;DHT22;44912;52.754;5.994;2023-07-29T02:32:05;17.80;99.90
59128;DHT22;44912;52.754;5.994;2023-07-29T02:34:31;17.70;99.90
59128;DHT22;44912;52.754;5.994;2023-07-29T02:36:57;17.70;99.90
59128;DHT22;44912;52.754;5.994;2023-07-29T02:39:22;17.70;99.90
59128;DHT22;44912;52.754;5.994;2023-07-29T02:41:49;17.70;99.90
59128;DHT22;44912;52.754;5.994;2023-07-29T02:44:15;17.70;99.90
59128;DHT22;44912;52.754;5.994;2023-07-29T02:46:41;17.70;99.90
59128;DHT22;44912;52.754;5.994;2023-07-29T02:49:06;17.60;99.90
59128;DHT22;44912;52.754;5.994;2023-07-29T02:51:32;17.60;99.90
59128;DHT22;44912;52.754;5.994;2023-07-29T02:53:57;17.50;99.90
59128;DHT22;44912;52.754;5.994;2023-07-29T02:56:23;17.40;99.90
59128;DHT22;44912;52.754;5.994;2023-07-29T02:58:49;17.30;99.90
59128;DHT22;44912;52.754;5.994;2023-07-29T03:01:16;17.30;99.90
59128;DHT22;44912;52.754;5.994;2023-07-29T03:03:42;17.20;99.90
59128;DHT22;44912;52.754;5.994;2023-07-29T03:06:09;17.20;99.90
59128;DHT22;44912;52.754;5.994;2023-07-29T03:08:36;17.10;99.90
59128;DHT22;44912;52.754;5.994;2023-07-29T03:17:20;17.10;99.90
59128;DHT22;44912;52.754;5.994;2023-07-29T03:43:31;17.00;99.90
59128;DHT22;44912;52.754;5.994;2023-07-29T03:45:56;17.00;99.90
59128;DHT22;44912;52.754;5.994;2023-07-29T03:48:22;16.90;99.90
59128;DHT22;44912;52.754;5.994;2023-07-29T03:50:47;16.90;99.90
59128;DHT22;44912;52.754;5.994;2023-07-29T03:53:13;16.90;99.90
59128;DHT22;44912;52.754;5.994;2023-07-29T03:55:38;16.90;99.90
59128;DHT22;44912;52.754;5.994;2023-07-29T03:58:04;16.90;99.90
59128;DHT22;44912;52.754;5.994;2023-07-29T04:00:30;16.90;99.90
59128;DHT22;44912;52.754;5.994;2023-07-29T04:02:55;16.90;99.90
59128;DHT22;44912;52.754;5.994;2023-07-29T04:05:21;16.90;99.90
59128;DHT22;44912;52.754;5.994;2023-07-29T04:07:46;16.90;99.90
59128;DHT22;44912;52.754;5.994;2023-07-29T04:10:12;16.90;99.90
59128;DHT22;44912;52.754;5.994;2023-07-29T04:12:38;16.90;99.90
59128;DHT22;44912;52.754;5.994;2023-07-29T04:15:04;16.90;99.90
59128;DHT22;44912;52.754;5.994;2023-07-29T04:17:29;16.90;99.90
59128;DHT22;44912;52.754;5.994;2023-07-29T04:19:55;16.90;99.90
59128;DHT22;44912;52.754;5.994;2023-07-29T04:22:20;16.90;99.90
59128;DHT22;44912;52.754;5.994;2023-07-29T04:24:46;16.90;99.90
59128;DHT22;44912;52.754;5.994;2023-07-29T04:27:11;16.90;99.90
59128;DHT22;44912;52.754;5.994;2023-07-29T04:29:37;16.90;99.90
59128;DHT22;44912;52.754;5.994;2023-07-29T04:32:03;16.80;99.90
59128;DHT22;44912;52.754;5.994;2023-07-29T04:34:29;16.70;99.90
59128;DHT22;44912;52.754;5.994;2023-07-29T04:36:55;16.80;99.90
59128;DHT22;44912;52.754;5.994;2023-07-29T04:39:20;16.80;99.90
59128;DHT22;44912;52.754;5.994;2023-07-29T04:41:46;16.80;99.90
59128;DHT22;44912;52.754;5.994;2023-07-29T04:44:11;16.80;99.90
59128;DHT22;44912;52.754;5.994;2023-07-29T04:46:37;16.80;99.90
59128;DHT22;44912;52.754;5.994;2023-07-29T04:49:04;16.90;99.90
59128;DHT22;44912;52.754;5.994;2023-07-29T04:51:29;16.90;99.90
59128;DHT22;44912;52.754;5.994;2023-07-29T04:53:55;16.90;99.90
59128;DHT22;44912;52.754;5.994;2023-07-29T04:56:20;16.90;99.90
59128;DHT22;44912;52.754;5.994;2023-07-29T04:58:46;16.90;99.90
59128;DHT22;44912;52.754;5.994;2023-07-29T05:01:11;17.00;99.90
59128;DHT22;44912;52.754;5.994;2023-07-29T05:03:37;16.90;99.90
59128;DHT22;44912;52.754;5.994;2023-07-29T05:06:05;17.00;99.90
59128;DHT22;44912;52.754;5.994;2023-07-29T05:08:30;17.10;99.90
59128;DHT22;44912;52.754;5.994;2023-07-29T05:10:56;17.00;99.90
59128;DHT22;44912;52.754;5.994;2023-07-29T05:13:23;17.10;99.90
59128;DHT22;44912;52.754;5.994;2023-07-29T05:15:49;17.10;99.90
59128;DHT22;44912;52.754;5.994;2023-07-29T05:18:15;17.10;99.90
59128;DHT22;44912;52.754;5.994;2023-07-29T05:20:41;17.10;99.90
59128;DHT22;44912;52.754;5.994;2023-07-29T05:23:07;17.20;99.90
59128;DHT22;44912;52.754;5.994;2023-07-29T05:25:32;17.20;99.90
59128;DHT22;44912;52.754;5.994;2023-07-29T05:28:00;17.20;99.90
59128;DHT22;44912;52.754;5.994;2023-07-29T05:30:26;17.20;99.90
59128;DHT22;44912;52.754;5.994;2023-07-29T05:32:55;17.20;99.90
59128;DHT22;44912;52.754;5.994;2023-07-29T05:35:21;17.30;99.90
59128;DHT22;44912;52.754;5.994;2023-07-29T05:37:46;17.30;99.90
59128;DHT22;44912;52.754;5.994;2023-07-29T05:40:12;17.30;99.90
59128;DHT22;44912;52.754;5.994;2023-07-29T05:42:37;17.30;99.90
59128;DHT22;44912;52.754;5.994;2023-07-29T05:45:03;17.40;99.90
59128;DHT22;44912;52.754;5.994;2023-07-29T05:47:29;17.40;99.90
59128;DHT22;44912;52.754;5.994;2023-07-29T05:49:54;17.40;99.90
59128;DHT22;44912;52.754;5.994;2023-07-29T05:52:20;17.40;99.90
59128;DHT22;44912;52.754;5.994;2023-07-29T05:54:45;17.40;99.90
59128;DHT22;44912;52.754;5.994;2023-07-29T05:57:13;17.50;99.90
59128;DHT22;44912;52.754;5.994;2023-07-29T05:59:39;17.40;99.90
59128;DHT22;44912;52.754;5.994;2023-07-29T06:02:05;17.50;99.90
59128;DHT22;44912;52.754;5.994;2023-07-29T06:04:31;17.60;99.90
59128;DHT22;44912;52.754;5.994;2023-07-29T06:06:56;17.70;99.90
59128;DHT22;44912;52.754;5.994;2023-07-29T06:09:23;17.80;99.90
59128;DHT22;44912;52.754;5.994;2023-07-29T06:11:48;17.90;99.90
59128;DHT22;44912;52.754;5.994;2023-07-29T06:14:14;17.90;99.90
59128;DHT22;44912;52.754;5.994;2023-07-29T06:16:40;17.90;99.90
59128;DHT22;44912;52.754;5.994;2023-07-29T06:19:05;17.90;99.90
59128;DHT22;44912;52.754;5.994;2023-07-29T06:21:36;18.00;99.90
59128;DHT22;44912;52.754;5.994;2023-07-29T06:24:05;18.00;99.90
59128;DHT22;44912;52.754;5.994;2023-07-29T06:26:33;18.00;99.90
59128;DHT22;44912;52.754;5.994;2023-07-29T06:29:04;18.10;99.90
59128;DHT22;44912;52.754;5.994;2023-07-29T06:33:58;18.20;99.90
59128;DHT22;44912;52.754;5.994;2023-07-29T06:36:33;18.20;99.90
59128;DHT22;44912;52.754;5.994;2023-07-29T06:38:59;18.20;99.90
59128;DHT22;44912;52.754;5.994;2023-07-29T06:41:24;18.20;99.90
59128;DHT22;44912;52.754;5.994;2023-07-29T06:43:50;18.20;99.90
59128;DHT22;44912;52.754;5.994;2023-07-29T06:46:15;18.20;99.90
59128;DHT22;44912;52.754;5.994;2023-07-29T06:48:41;18.30;99.90
59128;DHT22;44912;52.754;5.994;2023-07-29T06:51:06;18.30;99.90
59128;DHT22;44912;52.754;5.994;2023-07-29T06:53:32;18.20;99.90
59128;DHT22;44912;52.754;5.994;2023-07-29T06:55:57;18.20;99.90
59128;DHT22;44912;52.754;5.994;2023-07-29T06:58:23;18.30;99.90
59128;DHT22;44912;52.754;5.994;2023-07-29T07:00:49;18.30;99.90
59128;DHT22;44912;52.754;5.994;2023-07-29T07:03:14;18.40;99.90
59128;DHT22;44912;52.754;5.994;2023-07-29T07:05:40;18.50;99.90
59128;DHT22;44912;52.754;5.994;2023-07-29T07:08:05;18.50;99.90
59128;DHT22;44912;52.754;5.994;2023-07-29T07:10:31;18.60;99.90
59128;DHT22;44912;52.754;5.994;2023-07-29T07:12:57;18.70;99.90
59128;DHT22;44912;52.754;5.994;2023-07-29T07:15:22;18.70;99.90
59128;DHT22;44912;52.754;5.994;2023-07-29T07:17:48;18.70;99.90
59128;DHT22;44912;52.754;5.994;2023-07-29T07:20:13;18.80;99.90
59128;DHT22;44912;52.754;5.994;2023-07-29T07:22:39;18.70;99.90
59128;DHT22;44912;52.754;5.994;2023-07-29T07:25:05;18.80;99.90
59128;DHT22;44912;52.754;5.994;2023-07-29T07:27:30;18.80;99.90
59128;DHT22;44912;52.754;5.994;2023-07-29T07:29:59;18.80;99.90
59128;DHT22;44912;52.754;5.994;2023-07-29T07:32:26;18.80;99.90
59128;DHT22;44912;52.754;5.994;2023-07-29T07:34:51;18.90;99.90
59128;DHT22;44912;52.754;5.994;2023-07-29T07:37:17;19.00;99.90
59128;DHT22;44912;52.754;5.994;2023-07-29T07:39:42;19.00;99.90
59128;DHT22;44912;52.754;5.994;2023-07-29T07:42:08;19.00;99.90
59128;DHT22;44912;52.754;5.994;2023-07-29T07:44:33;19.10;99.90
59128;DHT22;44912;52.754;5.994;2023-07-29T07:46:59;19.10;99.90
59128;DHT22;44912;52.754;5.994;2023-07-29T07:49:24;19.30;99.90
59128;DHT22;44912;52.754;5.994;2023-07-29T07:51:50;19.30;99.90
59128;DHT22;44912;52.754;5.994;2023-07-29T07:54:16;19.40;99.90
59128;DHT22;44912;52.754;5.994;2023-07-29T07:56:42;19.60;99.90
59128;DHT22;44912;52.754;5.994;2023-07-29T07:59:07;19.60;99.90
59128;DHT22;44912;52.754;5.994;2023-07-29T08:01:37;19.60;99.90
59128;DHT22;44912;52.754;5.994;2023-07-29T08:04:03;19.50;99.90
59128;DHT22;44912;52.754;5.994;2023-07-29T08:06:29;19.50;99.90
59128;DHT22;44912;52.754;5.994;2023-07-29T08:08:56;19.40;99.90
59128;DHT22;44912;52.754;5.994;2023-07-29T08:11:21;19.40;99.90
59128;DHT22;44912;52.754;5.994;2023-07-29T08:13:47;19.40;99.90
59128;DHT22;44912;52.754;5.994;2023-07-29T08:16:12;19.50;99.90
59128;DHT22;44912;52.754;5.994;2023-07-29T08:18:38;19.50;99.90
59128;DHT22;44912;52.754;5.994;2023-07-29T08:21:04;19.60;99.90
59128;DHT22;44912;52.754;5.994;2023-07-29T08:23:32;19.70;99.90
59128;DHT22;44912;52.754;5.994;2023-07-29T08:25:59;19.70;99.90
59128;DHT22;44912;52.754;5.994;2023-07-29T08:28:36;20.00;99.90
59128;DHT22;44912;52.754;5.994;2023-07-29T08:31:02;20.10;99.90
59128;DHT22;44912;52.754;5.994;2023-07-29T08:33:29;20.10;99.90
59128;DHT22;44912;52.754;5.994;2023-07-29T08:35:54;20.30;99.90
59128;DHT22;44912;52.754;5.994;2023-07-29T08:38:21;20.40;99.90
59128;DHT22;44912;52.754;5.994;2023-07-29T08:40:54;20.40;99.90
59128;DHT22;44912;52.754;5.994;2023-07-29T08:43:28;20.30;99.90
59128;DHT22;44912;52.754;5.994;2023-07-29T08:45:55;20.50;99.90
59128;DHT22;44912;52.754;5.994;2023-07-29T08:48:33;20.60;99.90
59128;DHT22;44912;52.754;5.994;2023-07-29T08:51:02;20.70;99.90
59128;DHT22;44912;52.754;5.994;2023-07-29T08:53:28;20.70;99.90
59128;DHT22;44912;52.754;5.994;2023-07-29T08:55:54;20.60;99.90
59128;DHT22;44912;52.754;5.994;2023-07-29T08:58:21;20.60;99.90
59128;DHT22;44912;52.754;5.994;2023-07-29T09:00:48;20.60;99.90
59128;DHT22;44912;52.754;5.994;2023-07-29T09:03:14;20.70;99.90
59128;DHT22;44912;52.754;5.994;2023-07-29T09:05:40;20.70;99.90
59128;DHT22;44912;52.754;5.994;2023-07-29T09:08:06;20.70;99.90
59128;DHT22;44912;52.754;5.994;2023-07-29T09:10:36;20.80;99.90
59128;DHT22;44912;52.754;5.994;2023-07-29T09:13:02;21.00;99.90
59128;DHT22;44912;52.754;5.994;2023-07-29T09:15:33;21.10;99.90
59128;DHT22;44912;52.754;5.994;2023-07-29T09:18:09;21.20;99.90
59128;DHT22;44912;52.754;5.994;2023-07-29T09:20:35;21.30;99.90
59128;DHT22;44912;52.754;5.994;2023-07-29T09:23:01;21.10;99.90
59128;DHT22;44912;52.754;5.994;2023-07-29T09:25:28;20.90;99.90
59128;DHT22;44912;52.754;5.994;2023-07-29T09:28:08;20.80;99.90
59128;DHT22;44912;52.754;5.994;2023-07-29T09:30:34;20.60;99.90
59128;DHT22;44912;52.754;5.994;2023-07-29T09:33:00;20.50;99.90
59128;DHT22;44912;52.754;5.994;2023-07-29T09:35:28;20.40;99.90
59128;DHT22;44912;52.754;5.994;2023-07-29T09:37:54;20.30;99.90
59128;DHT22;44912;52.754;5.994;2023-07-29T09:40:19;20.30;99.90
59128;DHT22;44912;52.754;5.994;2023-07-29T09:45:22;20.30;99.90
59128;DHT22;44912;52.754;5.994;2023-07-29T09:47:49;20.30;99.90
59128;DHT22;44912;52.754;5.994;2023-07-29T09:50:15;20.20;99.90
59128;DHT22;44912;52.754;5.994;2023-07-29T09:52:41;20.10;99.90
59128;DHT22;44912;52.754;5.994;2023-07-29T09:55:09;20.10;99.90
59128;DHT22;44912;52.754;5.994;2023-07-29T09:57:34;19.60;99.90
59128;DHT22;44912;52.754;5.994;2023-07-29T10:00:01;19.20;99.90
59128;DHT22;44912;52.754;5.994;2023-07-29T10:02:30;18.70;99.90
59128;DHT22;44912;52.754;5.994;2023-07-29T10:04:57;18.60;99.90
59128;DHT22;44912;52.754;5.994;2023-07-29T10:07:23;18.50;99.90
59128;DHT22;44912;52.754;5.994;2023-07-29T10:09:51;18.60;99.90
59128;DHT22;44912;52.754;5.994;2023-07-29T10:12:18;18.70;99.90
59128;DHT22;44912;52.754;5.994;2023-07-29T10:14:46;18.80;99.90
59128;DHT22;44912;52.754;5.994;2023-07-29T10:17:13;18.90;99.90
59128;DHT22;44912;52.754;5.994;2023-07-29T10:19:41;18.90;99.90
59128;DHT22;44912;52.754;5.994;2023-07-29T10:22:08;18.90;99.90
59128;DHT22;44912;52.754;5.994;2023-07-29T10:24:36;19.00;99.90
59128;DHT22;44912;52.754;5.994;2023-07-29T10:27:05;19.00;99.90
59128;DHT22;44912;52.754;5.994;2023-07-29T10:29:32;19.10;99.90
59128;DHT22;44912;52.754;5.994;2023-07-29T10:32:02;19.20;99.90
59128;DHT22;44912;52.754;5.994;2023-07-29T10:34:30;19.30;99.90
59128;DHT22;44912;52.754;5.994;2023-07-29T10:36:56;19.40;99.90
59128;DHT22;44912;52.754;5.994;2023-07-29T10:39:24;19.50;99.90
59128;DHT22;44912;52.754;5.994;2023-07-29T10:42:00;19.70;99.90
59128;DHT22;44912;52.754;5.994;2023-07-29T10:47:22;20.10;99.90
59128;DHT22;44912;52.754;5.994;2023-07-29T10:49:54;20.50;99.90
59128;DHT22;44912;52.754;5.994;2023-07-29T10:55:02;20.40;99.90
59128;DHT22;44912;52.754;5.994;2023-07-29T10:57:33;20.30;99.90
59128;DHT22;44912;52.754;5.994;2023-07-29T10:59:59;20.20;99.90
59128;DHT22;44912;52.754;5.994;2023-07-29T11:02:33;20.10;99.90
59128;DHT22;44912;52.754;5.994;2023-07-29T11:05:05;19.90;99.90
59128;DHT22;44912;52.754;5.994;2023-07-29T11:07:46;19.80;99.90
59128;DHT22;44912;52.754;5.994;2023-07-29T11:10:13;19.70;99.90
59128;DHT22;44912;52.754;5.994;2023-07-29T11:15:16;19.80;99.90
59128;DHT22;44912;52.754;5.994;2023-07-29T11:17:50;19.90;99.90
59128;DHT22;44912;52.754;5.994;2023-07-29T11:20:18;20.20;99.90
59128;DHT22;44912;52.754;5.994;2023-07-29T11:22:43;20.40;99.90
59128;DHT22;44912;52.754;5.994;2023-07-29T11:25:12;20.60;99.90
59128;DHT22;44912;52.754;5.994;2023-07-29T11:27:38;20.90;99.90
59128;DHT22;44912;52.754;5.994;2023-07-29T11:30:06;21.10;99.90
59128;DHT22;44912;52.754;5.994;2023-07-29T11:32:32;21.10;99.90
59128;DHT22;44912;52.754;5.994;2023-07-29T11:35:27;21.00;99.90
59128;DHT22;44912;52.754;5.994;2023-07-29T11:37:54;20.90;99.90
59128;DHT22;44912;52.754;5.994;2023-07-29T11:40:22;21.00;99.90
59128;DHT22;44912;52.754;5.994;2023-07-29T11:42:51;21.30;99.90
59128;DHT22;44912;52.754;5.994;2023-07-29T11:45:17;21.60;99.90
59128;DHT22;44912;52.754;5.994;2023-07-29T11:47:43;21.60;99.90
59128;DHT22;44912;52.754;5.994;2023-07-29T11:50:10;21.40;99.90
59128;DHT22;44912;52.754;5.994;2023-07-29T11:52:37;21.30;99.90
59128;DHT22;44912;52.754;5.994;2023-07-29T11:55:05;21.40;99.90
59128;DHT22;44912;52.754;5.994;2023-07-29T11:57:32;21.70;99.90
59128;DHT22;44912;52.754;5.994;2023-07-29T11:59:58;22.10;99.90
59128;DHT22;44912;52.754;5.994;2023-07-29T12:02:24;22.30;99.90
59128;DHT22;44912;52.754;5.994;2023-07-29T12:04:51;22.50;99.90
59128;DHT22;44912;52.754;5.994;2023-07-29T12:07:18;22.50;99.90
59128;DHT22;44912;52.754;5.994;2023-07-29T12:09:44;22.50;99.90
59128;DHT22;44912;52.754;5.994;2023-07-29T12:12:11;22.30;99.90
59128;DHT22;44912;52.754;5.994;2023-07-29T12:14:37;22.00;99.90
59128;DHT22;44912;52.754;5.994;2023-07-29T12:17:06;21.90;99.90
59128;DHT22;44912;52.754;5.994;2023-07-29T12:19:33;21.90;99.90
59128;DHT22;44912;52.754;5.994;2023-07-29T12:22:04;22.00;99.90
59128;DHT22;44912;52.754;5.994;2023-07-29T12:24:30;22.10;99.90
59128;DHT22;44912;52.754;5.994;2023-07-29T12:26:56;21.90;99.90
59128;DHT22;44912;52.754;5.994;2023-07-29T12:29:22;21.80;99.90
59128;DHT22;44912;52.754;5.994;2023-07-29T12:31:49;21.80;99.90
59128;DHT22;44912;52.754;5.994;2023-07-29T12:34:21;21.90;99.90
59128;DHT22;44912;52.754;5.994;2023-07-29T12:36:48;22.10;99.90
59128;DHT22;44912;52.754;5.994;2023-07-29T12:41:50;22.10;99.90
59128;DHT22;44912;52.754;5.994;2023-07-29T12:44:15;22.10;99.90
59128;DHT22;44912;52.754;5.994;2023-07-29T12:46:41;22.10;99.90
59128;DHT22;44912;52.754;5.994;2023-07-29T12:49:07;22.00;99.90
59128;DHT22;44912;52.754;5.994;2023-07-29T12:51:32;21.80;99.90
59128;DHT22;44912;52.754;5.994;2023-07-29T12:53:58;21.60;99.90
59128;DHT22;44912;52.754;5.994;2023-07-29T12:56:24;21.70;99.90
59128;DHT22;44912;52.754;5.994;2023-07-29T12:58:49;21.80;99.90
59128;DHT22;44912;52.754;5.994;2023-07-29T13:01:15;21.80;99.90
59128;DHT22;44912;52.754;5.994;2023-07-29T13:03:44;21.70;99.90
59128;DHT22;44912;52.754;5.994;2023-07-29T13:06:10;21.60;99.90
59128;DHT22;44912;52.754;5.994;2023-07-29T13:08:35;21.50;99.90
59128;DHT22;44912;52.754;5.994;2023-07-29T13:11:01;21.30;99.90
59128;DHT22;44912;52.754;5.994;2023-07-29T13:13:27;21.20;99.90
59128;DHT22;44912;52.754;5.994;2023-07-29T13:15:53;21.20;99.90
59128;DHT22;44912;52.754;5.994;2023-07-29T13:18:18;21.10;99.90
59128;DHT22;44912;52.754;5.994;2023-07-29T13:20:44;21.00;99.90
59128;DHT22;44912;52.754;5.994;2023-07-29T13:23:09;21.10;99.90
59128;DHT22;44912;52.754;5.994;2023-07-29T13:25:35;21.10;99.90
59128;DHT22;44912;52.754;5.994;2023-07-29T13:28:00;21.10;99.90
59128;DHT22;44912;52.754;5.994;2023-07-29T13:30:26;21.10;99.90
59128;DHT22;44912;52.754;5.994;2023-07-29T13:32:51;21.50;99.90
59128;DHT22;44912;52.754;5.994;2023-07-29T13:35:17;22.00;99.90
59128;DHT22;44912;52.754;5.994;2023-07-29T13:37:42;22.00;99.90
59128;DHT22;44912;52.754;5.994;2023-07-29T13:40:08;21.90;99.90
59128;DHT22;44912;52.754;5.994;2023-07-29T13:42:33;21.80;99.90
59128;DHT22;44912;52.754;5.994;2023-07-29T13:45:00;21.80;99.90
59128;DHT22;44912;52.754;5.994;2023-07-29T13:47:26;21.90;99.90
59128;DHT22;44912;52.754;5.994;2023-07-29T13:49:51;21.90;99.90
59128;DHT22;44912;52.754;5.994;2023-07-29T13:52:17;21.80;99.90
59128;DHT22;44912;52.754;5.994;2023-07-29T13:54:42;21.80;99.90
59128;DHT22;44912;52.754;5.994;2023-07-29T13:57:08;21.80;99.90
59128;DHT22;44912;52.754;5.994;2023-07-29T13:59:35;21.60;99.90
59128;DHT22;44912;52.754;5.994;2023-07-29T14:02:04;21.50;99.90
59128;DHT22;44912;52.754;5.994;2023-07-29T14:04:30;21.40;99.90
59128;DHT22;44912;52.754;5.994;2023-07-29T14:06:55;21.40;99.90
59128;DHT22;44912;52.754;5.994;2023-07-29T14:09:21;21.30;99.90
59128;DHT22;44912;52.754;5.994;2023-07-29T14:11:46;21.20;99.90
59128;DHT22;44912;52.754;5.994;2023-07-29T14:14:12;21.20;99.90
59128;DHT22;44912;52.754;5.994;2023-07-29T14:16:37;21.40;99.90
59128;DHT22;44912;52.754;5.994;2023-07-29T14:19:03;21.60;99.90
59128;DHT22;44912;52.754;5.994;2023-07-29T14:21:28;21.90;99.90
59128;DHT22;44912;52.754;5.994;2023-07-29T14:23:54;22.00;99.90
59128;DHT22;44912;52.754;5.994;2023-07-29T14:26:19;22.10;99.90
59128;DHT22;44912;52.754;5.994;2023-07-29T14:28:45;22.20;99.90
59128;DHT22;44912;52.754;5.994;2023-07-29T14:31:10;22.20;99.90
59128;DHT22;44912;52.754;5.994;2023-07-29T14:33:36;22.40;99.90
59128;DHT22;44912;52.754;5.994;2023-07-29T14:36:01;22.50;99.90
59128;DHT22;44912;52.754;5.994;2023-07-29T14:38:29;22.50;99.90
59128;DHT22;44912;52.754;5.994;2023-07-29T14:40:54;22.40;99.90
59128;DHT22;44912;52.754;5.994;2023-07-29T14:43:22;22.30;99.90
59128;DHT22;44912;52.754;5.994;2023-07-29T14:45:48;22.30;99.90
59128;DHT22;44912;52.754;5.994;2023-07-29T14:48:14;22.50;99.90
59128;DHT22;44912;52.754;5.994;2023-07-29T14:50:39;22.60;99.90
59128;DHT22;44912;52.754;5.994;2023-07-29T14:53:05;22.70;99.90
59128;DHT22;44912;52.754;5.994;2023-07-29T14:55:31;22.80;99.90
59128;DHT22;44912;52.754;5.994;2023-07-29T14:57:56;22.70;99.90
59128;DHT22;44912;52.754;5.994;2023-07-29T15:00:22;22.80;99.90
59128;DHT22;44912;52.754;5.994;2023-07-29T15:02:47;22.60;99.90
59128;DHT22;44912;52.754;5.994;2023-07-29T15:05:13;22.70;99.90
59128;DHT22;44912;52.754;5.994;2023-07-29T15:07:38;22.70;99.90
59128;DHT22;44912;52.754;5.994;2023-07-29T15:10:04;22.90;99.90
59128;DHT22;44912;52.754;5.994;2023-07-29T15:12:30;23.00;99.90
59128;DHT22;44912;52.754;5.994;2023-07-29T15:14:55;22.90;99.90
59128;DHT22;44912;52.754;5.994;2023-07-29T15:17:21;22.90;99.90
59128;DHT22;44912;52.754;5.994;2023-07-29T15:19:46;22.70;99.90
59128;DHT22;44912;52.754;5.994;2023-07-29T15:22:16;22.70;99.90
59128;DHT22;44912;52.754;5.994;2023-07-29T15:24:41;22.70;99.90
59128;DHT22;44912;52.754;5.994;2023-07-29T15:27:09;22.60;99.90
59128;DHT22;44912;52.754;5.994;2023-07-29T15:29:35;22.70;99.90
59128;DHT22;44912;52.754;5.994;2023-07-29T15:32:00;22.70;99.90
59128;DHT22;44912;52.754;5.994;2023-07-29T15:34:26;22.70;99.90
59128;DHT22;44912;52.754;5.994;2023-07-29T15:36:51;22.70;99.90
59128;DHT22;44912;52.754;5.994;2023-07-29T15:39:17;22.70;99.90
59128;DHT22;44912;52.754;5.994;2023-07-29T15:41:43;22.80;99.90
59128;DHT22;44912;52.754;5.994;2023-07-29T15:44:08;22.80;99.90
59128;DHT22;44912;52.754;5.994;2023-07-29T15:46:34;22.70;99.90
59128;DHT22;44912;52.754;5.994;2023-07-29T15:48:59;22.80;99.90
59128;DHT22;44912;52.754;5.994;2023-07-29T15:51:26;22.90;99.90
59128;DHT22;44912;52.754;5.994;2023-07-29T15:53:52;22.80;99.90
59128;DHT22;44912;52.754;5.994;2023-07-29T15:56:17;22.80;99.90
59128;DHT22;44912;52.754;5.994;2023-07-29T15:58:43;22.80;99.90
59128;DHT22;44912;52.754;5.994;2023-07-29T16:01:08;22.90;99.90
59128;DHT22;44912;52.754;5.994;2023-07-29T16:03:34;22.80;99.90
59128;DHT22;44912;52.754;5.994;2023-07-29T16:05:59;22.70;99.90
59128;DHT22;44912;52.754;5.994;2023-07-29T16:08:26;22.70;99.90
59128;DHT22;44912;52.754;5.994;2023-07-29T16:10:52;22.80;99.90
59128;DHT22;44912;52.754;5.994;2023-07-29T16:13:17;22.80;99.90